Terminal Aerodrome Forecast
Issued by NWS Sterling, VA

Current Version | Previous Version | Text Only | Print | Product List | Glossary Off
Versions: 1 2 3 4 5 6 7 8 9 10 11 12 13 14 15 16 17 18 19 20

000
FTUS41 KLWX 310800 AAA
TAFMRB
TAF AMD
KMRB 310845Z 3109/0106 30013G21KT P6SM FEW040
     FM311800 31008KT P6SM FEW250
     FM010100 VRB04KT P6SM SCT250=

USA.gov is the U.S. government's official web portal to all federal, state and local government web resources and services.